Time;durP1;ratioP1;P1;durP2;ratioP2;P2;SDS_P1;SDS_P2;PMS_P1;PMS_P2;Temp;Humidity;BMP_temperature;BMP_pressure;BME280_temperature;BME280_humidity;BME280_pressure;Samples;Min_cycle;Max_cycle;Signal;HPM_P1;HPM_P2
2022/01/15 00:02:51;;;;;;;63.63;34.77;;;;;4.20;102674.00;;;;9902102;29;20210;-79
2022/01/15 00:07:53;;;;;;;65.03;35.50;;;;;4.20;102660.00;;;;9891475;29;20696;-79
2022/01/15 00:12:57;;;;;;;64.90;36.53;;;;;4.10;102657.00;;;;9920009;29;20207;-79
2022/01/15 00:18:02;;;;;;;64.83;36.80;;;;;4.10;102660.00;;;;9874553;29;20199;-79
2022/01/15 00:23:04;;;;;;;66.27;37.30;;;;;4.10;102650.00;;;;9877633;29;20204;-78
2022/01/15 00:28:06;;;;;;;69.97;38.87;;;;;4.10;102647.00;;;;9891806;29;20261;-79
2022/01/15 00:33:09;;;;;;;61.93;36.73;;;;;4.10;102641.00;;;;9890211;30;20206;-79
2022/01/15 00:38:13;;;;;;;65.00;36.07;;;;;4.10;102635.00;;;;9882037;30;20188;-78
2022/01/15 00:43:15;;;;;;;64.47;34.20;;;;;4.10;102642.00;;;;9913320;29;20625;-78
2022/01/15 00:48:17;;;;;;;62.47;36.00;;;;;4.00;102624.00;;;;9940292;29;20226;-79
2022/01/15 00:53:19;;;;;;;66.47;35.53;;;;;4.00;102627.00;;;;9928253;29;20216;-79
2022/01/15 00:58:21;;;;;;;57.80;32.97;;;;;4.00;102609.00;;;;9900221;29;20204;-78
2022/01/15 01:03:23;;;;;;;68.77;37.17;;;;;4.00;102616.00;;;;9900375;29;20211;-78
2022/01/15 01:08:25;;;;;;;66.10;35.47;;;;;4.00;102617.00;;;;9894399;29;20284;-79
2022/01/15 01:24:09;;;;;;;56.10;29.73;;;;;3.90;102605.00;;;;9892591;29;20644;-79
2022/01/15 01:34:35;;;;;;;59.17;33.37;;;;;3.80;102589.00;;;;9887657;29;20229;-78
2022/01/15 01:45:10;;;;;;;54.57;33.13;;;;;3.70;102575.00;;;;9900034;29;20218;-78
2022/01/15 01:50:18;;;;;;;61.20;34.63;;;;;3.70;102573.00;;;;9900885;29;20209;-78
2022/01/15 01:55:23;;;;;;;64.97;36.33;;;;;3.70;102560.00;;;;9946549;29;20288;-78
2022/01/15 02:00:27;;;;;;;61.43;35.97;;;;;3.70;102569.00;;;;9898193;29;20241;-78
2022/01/15 02:05:30;;;;;;;57.90;34.43;;;;;3.70;102560.00;;;;9872976;29;20663;-78
2022/01/15 02:10:32;;;;;;;61.07;33.77;;;;;3.70;102562.00;;;;9875321;29;20305;-78
2022/01/15 02:15:36;;;;;;;63.00;36.00;;;;;3.60;102562.00;;;;9907900;29;20195;-78
2022/01/15 02:25:53;;;;;;;65.60;34.60;;;;;3.60;102566.00;;;;9916913;29;20262;-78
2022/01/15 02:31:13;;;;;;;60.77;34.73;;;;;3.60;102553.00;;;;9899182;29;20204;-78
2022/01/15 02:36:21;;;;;;;68.67;38.33;;;;;3.60;102550.00;;;;9918164;29;20207;-78
2022/01/15 02:41:37;;;;;;;70.63;36.70;;;;;3.60;102547.00;;;;9889807;29;20294;-78
2022/01/15 02:51:50;;;;;;;65.30;37.63;;;;;3.60;102525.00;;;;9890768;29;20286;-78
2022/01/15 02:56:52;;;;;;;79.53;42.83;;;;;3.60;102518.00;;;;9892440;29;20215;-78
2022/01/15 03:01:54;;;;;;;78.00;41.00;;;;;3.50;102514.00;;;;9875308;29;20224;-78
2022/01/15 03:06:56;;;;;;;76.03;40.27;;;;;3.60;102511.00;;;;9879699;29;20248;-78
2022/01/15 03:12:02;;;;;;;79.97;39.50;;;;;3.60;102508.00;;;;9941089;29;20694;-78
2022/01/15 03:17:04;;;;;;;77.60;40.10;;;;;3.50;102503.00;;;;9900525;29;20214;-78
2022/01/15 03:22:15;;;;;;;82.50;40.17;;;;;3.50;102495.00;;;;9894891;30;20280;-78
2022/01/15 03:27:18;;;;;;;83.60;42.27;;;;;3.40;102478.00;;;;9870770;30;20222;-79
2022/01/15 03:32:21;;;;;;;92.17;43.83;;;;;3.50;102482.00;;;;9874286;29;20640;-78
2022/01/15 03:37:23;;;;;;;87.53;40.77;;;;;3.50;102470.00;;;;9908154;29;20203;-78
2022/01/15 03:42:25;;;;;;;86.13;42.80;;;;;3.40;102458.00;;;;9936714;29;20203;-78
2022/01/15 03:47:26;;;;;;;84.13;38.93;;;;;3.40;102467.00;;;;9914430;29;20229;-78
2022/01/15 03:52:28;;;;;;;91.83;42.70;;;;;3.40;102469.00;;;;9893470;29;20290;-78
2022/01/15 03:57:30;;;;;;;90.00;42.10;;;;;3.40;102463.00;;;;9922630;29;20201;-78
2022/01/15 04:02:32;;;;;;;91.23;41.70;;;;;3.40;102452.00;;;;9931546;29;20198;-77
2022/01/15 04:07:35;;;;;;;99.90;44.77;;;;;3.30;102449.00;;;;9923818;29;20235;-78
2022/01/15 04:12:37;;;;;;;94.67;43.37;;;;;3.20;102451.00;;;;9917914;29;20214;-78
2022/01/15 04:17:44;;;;;;;97.57;43.37;;;;;3.20;102453.00;;;;9889244;29;20211;-78
2022/01/15 04:22:46;;;;;;;100.63;43.77;;;;;3.10;102434.00;;;;9886860;29;20214;-78
2022/01/15 04:27:48;;;;;;;106.10;41.90;;;;;3.00;102435.00;;;;9883873;29;20215;-78
2022/01/15 04:32:50;;;;;;;106.00;44.13;;;;;3.00;102418.00;;;;9891115;29;20550;-78
2022/01/15 04:38:00;;;;;;;98.63;44.90;;;;;2.90;102427.00;;;;9904131;29;20268;-78
2022/01/15 04:43:02;;;;;;;112.43;45.83;;;;;2.90;102424.00;;;;9889426;29;20660;-78
2022/01/15 04:48:04;;;;;;;107.20;45.07;;;;;2.90;102419.00;;;;9894169;29;20234;-78
2022/01/15 04:53:08;;;;;;;110.03;42.97;;;;;2.80;102408.00;;;;9913399;29;20207;-78
2022/01/15 04:58:10;;;;;;;130.80;50.93;;;;;2.80;102391.00;;;;9868638;30;20216;-78
2022/01/15 05:03:12;;;;;;;119.07;46.47;;;;;2.80;102392.00;;;;9889544;29;20219;-78
2022/01/15 05:08:14;;;;;;;123.63;46.53;;;;;2.80;102391.00;;;;9942343;29;20231;-78
2022/01/15 05:13:21;;;;;;;110.83;44.00;;;;;2.80;102393.00;;;;9916923;29;20296;-78
2022/01/15 05:18:23;;;;;;;121.20;43.63;;;;;2.80;102382.00;;;;9881995;29;20218;-78
2022/01/15 05:23:25;;;;;;;115.43;46.20;;;;;2.80;102372.00;;;;9892718;29;20210;-78
2022/01/15 05:28:27;;;;;;;126.47;45.83;;;;;2.70;102374.00;;;;9889347;29;20230;-78
2022/01/15 05:33:29;;;;;;;115.03;42.00;;;;;2.70;102365.00;;;;9890149;29;20258;-78
2022/01/15 05:38:30;;;;;;;128.70;47.20;;;;;2.70;102353.00;;;;9898232;29;20204;-78
2022/01/15 05:43:32;;;;;;;140.10;50.20;;;;;2.70;102347.00;;;;9898712;29;20227;-78
2022/01/15 05:48:34;;;;;;;127.83;44.57;;;;;2.70;102338.00;;;;9896021;29;20259;-78
2022/01/15 05:53:36;;;;;;;134.57;47.97;;;;;2.60;102332.00;;;;9893798;29;20306;-78
2022/01/15 05:58:38;;;;;;;128.23;46.57;;;;;2.60;102328.00;;;;9884100;30;20298;-78
2022/01/15 06:03:41;;;;;;;150.27;50.43;;;;;2.50;102332.00;;;;9895961;29;20238;-78
2022/01/15 06:08:43;;;;;;;157.10;52.47;;;;;2.50;102328.00;;;;9899786;29;20726;-78
2022/01/15 06:13:45;;;;;;;159.67;56.03;;;;;2.50;102336.00;;;;9893105;29;20216;-78
2022/01/15 06:18:48;;;;;;;151.83;49.70;;;;;2.40;102332.00;;;;9905498;29;20204;-78
2022/01/15 06:23:50;;;;;;;175.77;54.27;;;;;2.40;102332.00;;;;9902936;29;20241;-78
2022/01/15 06:28:52;;;;;;;179.50;55.90;;;;;2.40;102338.00;;;;9877572;29;20219;-78
2022/01/15 06:33:54;;;;;;;180.30;52.73;;;;;2.50;102332.00;;;;9925237;29;20206;-78
2022/01/15 06:38:56;;;;;;;170.43;51.83;;;;;2.50;102338.00;;;;9905762;29;20199;-78
2022/01/15 06:43:59;;;;;;;132.80;43.17;;;;;2.50;102336.00;;;;9884133;29;20200;-78
2022/01/15 06:49:02;;;;;;;146.73;45.27;;;;;2.40;102341.00;;;;9886958;29;20306;-77
2022/01/15 06:54:04;;;;;;;142.57;41.67;;;;;2.40;102341.00;;;;9883386;29;20211;-78
2022/01/15 06:59:06;;;;;;;109.87;37.77;;;;;2.40;102331.00;;;;9893422;29;20198;-78
2022/01/15 07:04:08;;;;;;;107.27;36.70;;;;;2.30;102345.00;;;;9881721;29;20556;-77
2022/01/15 07:09:10;;;;;;;89.87;33.17;;;;;2.20;102341.00;;;;9900779;29;20229;-78
2022/01/15 07:14:12;;;;;;;122.30;36.63;;;;;2.10;102335.00;;;;9896598;29;21004;-78
2022/01/15 07:19:14;;;;;;;85.67;31.30;;;;;2.10;102319.00;;;;9894123;30;20207;-78
2022/01/15 07:24:18;;;;;;;113.40;37.07;;;;;2.00;102322.00;;;;9901409;29;20212;-78
2022/01/15 07:29:22;;;;;;;120.17;37.47;;;;;2.10;102302.00;;;;9881085;29;20219;-78
2022/01/15 07:34:26;;;;;;;105.77;36.30;;;;;2.10;102309.00;;;;9878733;29;20211;-78
2022/01/15 07:39:28;;;;;;;104.20;36.37;;;;;2.10;102307.00;;;;9887855;29;20210;-78
2022/01/15 07:44:30;;;;;;;129.73;40.67;;;;;2.20;102303.00;;;;9895259;29;20258;-77
2022/01/15 07:49:32;;;;;;;101.37;34.30;;;;;2.20;102312.00;;;;9884704;29;20235;-78
2022/01/15 07:54:34;;;;;;;131.10;39.00;;;;;2.20;102318.00;;;;9900612;29;20226;-78
2022/01/15 07:59:37;;;;;;;120.43;38.60;;;;;2.20;102310.00;;;;9870185;29;20211;-78
2022/01/15 08:04:40;;;;;;;115.63;35.17;;;;;2.30;102310.00;;;;9882952;29;20231;-78
2022/01/15 08:09:42;;;;;;;125.20;37.97;;;;;2.30;102321.00;;;;9904546;29;20231;-78
2022/01/15 08:14:45;;;;;;;113.77;35.07;;;;;2.30;102325.00;;;;9888830;29;20221;-78
2022/01/15 08:19:48;;;;;;;118.43;36.80;;;;;2.20;102323.00;;;;9900238;29;20620;-78
2022/01/15 08:24:50;;;;;;;108.47;33.87;;;;;2.20;102312.00;;;;9893854;29;20249;-78
2022/01/15 08:29:52;;;;;;;93.20;30.70;;;;;2.30;102326.00;;;;9895357;29;20211;-78
2022/01/15 08:34:54;;;;;;;82.33;28.07;;;;;2.30;102322.00;;;;9890098;29;20627;-78
2022/01/15 08:39:56;;;;;;;92.37;28.53;;;;;2.30;102315.00;;;;9907112;29;20207;-79
2022/01/15 08:44:57;;;;;;;73.63;23.70;;;;;2.30;102322.00;;;;9894369;29;20616;-78
2022/01/15 08:50:00;;;;;;;83.43;31.17;;;;;2.30;102327.00;;;;9880740;29;20679;-78
2022/01/15 08:55:04;;;;;;;77.33;26.20;;;;;2.30;102329.00;;;;9910370;29;20221;-78
2022/01/15 09:00:09;;;;;;;78.57;26.80;;;;;2.40;102336.00;;;;9886628;29;20236;-78
2022/01/15 09:05:11;;;;;;;72.83;26.87;;;;;2.40;102338.00;;;;9888585;29;20219;-78
2022/01/15 09:10:14;;;;;;;69.67;26.37;;;;;2.40;102319.00;;;;9913682;29;20231;-78
2022/01/15 09:15:17;;;;;;;70.30;26.07;;;;;2.40;102323.00;;;;9915283;29;20212;-78
2022/01/15 09:20:19;;;;;;;72.97;24.43;;;;;2.40;102311.00;;;;9888871;29;20207;-78
2022/01/15 09:25:22;;;;;;;73.70;25.13;;;;;2.50;102315.00;;;;9884295;29;20229;-79
2022/01/15 09:30:24;;;;;;;64.03;24.63;;;;;2.60;102303.00;;;;9895887;29;20207;-79
2022/01/15 09:35:28;;;;;;;59.63;23.87;;;;;2.70;102297.00;;;;9871930;29;20211;-78
2022/01/15 09:40:30;;;;;;;50.57;20.37;;;;;2.80;102303.00;;;;9875317;29;20287;-79
2022/01/15 09:45:35;;;;;;;62.37;23.87;;;;;2.90;102307.00;;;;9888102;29;20223;-78
2022/01/15 09:50:44;;;;;;;56.23;21.00;;;;;3.00;102310.00;;;;9864128;29;20234;-78
2022/01/15 09:55:48;;;;;;;50.87;21.53;;;;;2.90;102309.00;;;;9891501;29;20221;-78
2022/01/15 10:00:50;;;;;;;60.07;24.10;;;;;2.80;102311.00;;;;9884278;29;20227;-78
2022/01/15 10:05:53;;;;;;;51.53;23.37;;;;;2.90;102308.00;;;;9881920;29;20279;-78
2022/01/15 10:10:58;;;;;;;50.80;21.40;;;;;3.00;102310.00;;;;9897599;29;20219;-79
2022/01/15 10:16:03;;;;;;;52.40;24.10;;;;;3.30;102309.00;;;;9880650;29;20207;-78
2022/01/15 10:21:10;;;;;;;54.17;24.17;;;;;4.00;102308.00;;;;9866959;29;20200;-79
2022/01/15 10:26:17;;;;;;;46.53;22.40;;;;;4.30;102294.00;;;;9883125;29;20224;-79
2022/01/15 10:31:25;;;;;;;48.70;24.30;;;;;4.80;102290.00;;;;9875479;29;20206;-79
2022/01/15 10:36:32;;;;;;;41.97;21.83;;;;;4.20;102302.00;;;;9907681;29;20235;-79
2022/01/15 10:41:36;;;;;;;39.07;21.97;;;;;3.80;102308.00;;;;9877151;29;20643;-80
2022/01/15 10:46:38;;;;;;;38.40;21.93;;;;;3.70;102296.00;;;;9898869;29;20247;-78
2022/01/15 10:51:40;;;;;;;38.50;20.93;;;;;3.90;102289.00;;;;9894441;29;20230;-78
2022/01/15 10:56:42;;;;;;;41.97;23.27;;;;;4.30;102288.00;;;;9877408;29;20208;-78
2022/01/15 11:01:44;;;;;;;41.57;22.67;;;;;5.10;102284.00;;;;9917365;29;20191;-78
2022/01/15 11:06:46;;;;;;;41.57;23.27;;;;;5.70;102266.00;;;;9917022;29;20243;-79
2022/01/15 11:12:00;;;;;;;26.80;16.63;;;;;5.90;102272.00;;;;9884778;29;20227;-78
2022/01/15 11:17:05;;;;;;;24.53;16.73;;;;;6.10;102257.00;;;;9879818;29;20211;-79
2022/01/15 11:22:07;;;;;;;24.60;16.47;;;;;6.40;102246.00;;;;9881304;29;20214;-78
2022/01/15 11:27:10;;;;;;;22.63;15.83;;;;;6.60;102236.00;;;;9886374;29;20211;-79
2022/01/15 11:32:13;;;;;;;22.17;17.03;;;;;6.60;102222.00;;;;9894777;29;20248;-79
2022/01/15 11:37:17;;;;;;;23.67;16.40;;;;;6.50;102221.00;;;;9871517;29;20268;-78
2022/01/15 11:42:35;;;;;;;26.03;17.10;;;;;6.50;102218.00;;;;9897712;29;21071;-78
2022/01/15 11:47:37;;;;;;;27.83;17.37;;;;;6.50;102211.00;;;;9881073;29;20230;-78
2022/01/15 11:52:39;;;;;;;23.23;15.83;;;;;6.60;102200.00;;;;9898081;29;20596;-79
2022/01/15 11:57:48;;;;;;;24.57;16.73;;;;;6.70;102195.00;;;;9893499;29;20663;-78
2022/01/15 12:03:12;;;;;;;24.33;15.80;;;;;6.80;102188.00;;;;9906329;29;20203;-78
2022/01/15 12:08:14;;;;;;;22.53;15.73;;;;;7.00;102194.00;;;;9896438;29;20310;-78
2022/01/15 12:13:23;;;;;;;23.47;16.97;;;;;7.20;102187.00;;;;9901821;29;20660;-78
2022/01/15 12:18:25;;;;;;;23.70;16.30;;;;;7.40;102172.00;;;;9907192;29;20203;-78
2022/01/15 12:23:28;;;;;;;19.70;15.07;;;;;7.40;102155.00;;;;9846660;29;20211;-78
2022/01/15 12:28:32;;;;;;;23.07;16.10;;;;;7.40;102143.00;;;;9868872;29;20227;-79
2022/01/15 12:33:35;;;;;;;23.80;16.53;;;;;7.40;102144.00;;;;9883748;29;20211;-78
2022/01/15 12:38:37;;;;;;;21.50;15.73;;;;;7.40;102135.00;;;;9888476;29;20211;-78
2022/01/15 12:43:41;;;;;;;23.63;16.30;;;;;7.30;102126.00;;;;9902645;29;20207;-79
2022/01/15 12:48:45;;;;;;;23.97;16.03;;;;;7.40;102128.00;;;;9920140;29;20293;-78
2022/01/15 12:53:53;;;;;;;23.17;16.37;;;;;7.50;102111.00;;;;9935812;29;20213;-78
2022/01/15 12:58:57;;;;;;;24.13;16.37;;;;;7.60;102106.00;;;;9888529;29;20691;-79
2022/01/15 13:04:09;;;;;;;23.47;17.23;;;;;7.60;102109.00;;;;9917649;29;20210;-78
2022/01/15 13:09:11;;;;;;;20.53;15.23;;;;;7.60;102104.00;;;;9907751;29;20571;-78
2022/01/15 13:14:13;;;;;;;23.93;16.47;;;;;7.50;102105.00;;;;9893455;29;20202;-78
2022/01/15 13:19:15;;;;;;;22.70;16.23;;;;;7.40;102102.00;;;;9896439;29;20195;-78
2022/01/15 13:24:18;;;;;;;25.10;16.20;;;;;7.40;102090.00;;;;9887762;29;20215;-78
2022/01/15 13:29:22;;;;;;;21.97;16.33;;;;;7.20;102083.00;;;;9930373;29;20219;-79
2022/01/15 13:34:32;;;;;;;26.10;17.90;;;;;7.00;102088.00;;;;9926728;29;20206;-78
2022/01/15 13:39:34;;;;;;;25.27;17.07;;;;;6.90;102082.00;;;;9920688;29;20203;-79
2022/01/15 13:44:36;;;;;;;27.27;17.03;;;;;6.80;102083.00;;;;9887426;29;20404;-79
2022/01/15 13:55:05;;;;;;;23.90;17.33;;;;;6.80;102075.00;;;;9876236;30;20208;-79
2022/01/15 14:00:13;;;;;;;26.57;17.50;;;;;7.20;102063.00;;;;9878679;30;20582;-79
2022/01/15 14:05:18;;;;;;;23.27;16.10;;;;;7.20;102062.00;;;;9879374;29;20233;-78
2022/01/15 14:10:23;;;;;;;26.03;17.10;;;;;7.10;102055.00;;;;9913287;29;20226;-79
2022/01/15 14:15:31;;;;;;;22.77;16.37;;;;;7.20;102048.00;;;;9944984;29;20202;-79
2022/01/15 14:26:15;;;;;;;21.20;16.17;;;;;6.70;102050.00;;;;9959947;29;20229;-79
2022/01/15 14:31:19;;;;;;;25.20;17.00;;;;;6.40;102035.00;;;;9959425;29;20568;-79
2022/01/15 14:36:21;;;;;;;26.00;17.53;;;;;6.20;102033.00;;;;9944583;29;20289;-78
2022/01/15 14:41:23;;;;;;;25.67;16.63;;;;;5.90;102035.00;;;;9912890;29;20605;-79
2022/01/15 14:46:25;;;;;;;24.63;16.80;;;;;5.80;102038.00;;;;9922255;29;20225;-79
2022/01/15 14:51:28;;;;;;;26.60;17.13;;;;;5.90;102022.00;;;;9921988;29;20207;-79
2022/01/15 14:56:31;;;;;;;23.70;16.50;;;;;5.80;102019.00;;;;9885616;30;20200;-79
2022/01/15 15:01:34;;;;;;;26.47;18.10;;;;;5.80;102016.00;;;;9885086;30;20615;-79
2022/01/15 15:06:38;;;;;;;28.97;17.60;;;;;5.70;102022.00;;;;9869473;30;20235;-79
2022/01/15 15:11:40;;;;;;;29.87;18.63;;;;;5.60;102020.00;;;;9883797;30;20564;-79
2022/01/15 15:16:41;;;;;;;29.27;18.93;;;;;5.50;102018.00;;;;9918527;29;20568;-79
2022/01/15 15:21:44;;;;;;;29.50;19.10;;;;;5.30;102017.00;;;;9920296;29;20199;-79
2022/01/15 15:26:46;;;;;;;29.63;19.53;;;;;5.10;102017.00;;;;9920813;29;20219;-79
2022/01/15 15:31:48;;;;;;;29.07;19.27;;;;;5.00;102017.00;;;;9905496;29;20210;-79
2022/01/15 15:36:50;;;;;;;30.80;20.40;;;;;4.90;102019.00;;;;9920591;29;20205;-79
2022/01/15 15:41:52;;;;;;;29.27;18.77;;;;;4.70;102012.00;;;;9944082;29;20221;-78
2022/01/15 15:46:54;;;;;;;29.50;19.60;;;;;4.60;102018.00;;;;9902011;29;20226;-79
2022/01/15 15:51:56;;;;;;;33.80;20.47;;;;;4.40;102010.00;;;;9934496;29;20199;-79
2022/01/15 15:56:58;;;;;;;32.43;19.80;;;;;4.20;102009.00;;;;9915830;29;20207;-79
2022/01/15 16:02:02;;;;;;;31.07;19.07;;;;;4.10;102007.00;;;;9867660;30;20207;-79
2022/01/15 16:07:04;;;;;;;32.67;20.10;;;;;3.90;102000.00;;;;9873714;29;20600;-78
2022/01/15 16:12:07;;;;;;;32.53;20.17;;;;;3.80;102005.00;;;;9919076;29;20206;-79
2022/01/15 16:17:09;;;;;;;30.00;19.87;;;;;3.60;102004.00;;;;9867613;30;20231;-79
2022/01/15 16:22:15;;;;;;;32.47;19.57;;;;;3.40;101992.00;;;;9882334;30;20243;-78
2022/01/15 16:27:17;;;;;;;41.77;24.17;;;;;3.30;101997.00;;;;9874191;30;20262;-79
2022/01/15 16:32:19;;;;;;;49.10;29.70;;;;;3.10;101980.00;;;;9873604;29;20212;-79
2022/01/15 16:37:21;;;;;;;42.17;24.37;;;;;3.00;101990.00;;;;9902452;29;20199;-79
2022/01/15 16:42:23;;;;;;;38.37;23.57;;;;;2.90;101983.00;;;;9900194;29;20207;-79
2022/01/15 16:47:25;;;;;;;31.47;20.07;;;;;2.80;101980.00;;;;9918851;29;20215;-79
2022/01/15 16:52:28;;;;;;;30.33;20.03;;;;;2.80;101959.00;;;;9894948;29;20207;-79
2022/01/15 16:57:35;;;;;;;37.07;22.13;;;;;2.70;101952.00;;;;9872004;30;20204;-79
2022/01/15 17:02:37;;;;;;;34.07;22.33;;;;;2.60;101956.00;;;;9884971;29;20263;-80
2022/01/15 17:07:39;;;;;;;38.23;23.63;;;;;2.40;101954.00;;;;9893498;29;20285;-78
2022/01/15 17:12:42;;;;;;;32.33;21.57;;;;;2.30;101944.00;;;;9912374;29;20214;-79
2022/01/15 17:17:44;;;;;;;37.57;22.37;;;;;2.30;101943.00;;;;9917076;29;20195;-79
2022/01/15 17:22:46;;;;;;;36.23;22.33;;;;;2.20;101936.00;;;;9897165;29;20222;-78
2022/01/15 17:27:48;;;;;;;36.40;20.43;;;;;2.00;101931.00;;;;9897078;29;20733;-79
2022/01/15 17:32:50;;;;;;;34.67;22.57;;;;;1.90;101933.00;;;;9885016;29;20211;-78
2022/01/15 17:37:52;;;;;;;37.97;23.23;;;;;1.80;101920.00;;;;9880763;29;20283;-79
2022/01/15 17:42:54;;;;;;;33.27;20.67;;;;;1.80;101922.00;;;;9886737;29;20211;-78
2022/01/15 17:47:56;;;;;;;34.13;22.20;;;;;1.70;101935.00;;;;9891102;30;20222;-78
2022/01/15 17:53:06;;;;;;;34.80;22.60;;;;;1.60;101939.00;;;;9934556;29;20203;-78
2022/01/15 17:58:08;;;;;;;32.80;21.43;;;;;1.50;101928.00;;;;9928100;29;20199;-78
2022/01/15 18:03:10;;;;;;;31.33;20.70;;;;;1.40;101930.00;;;;9928915;29;20199;-78
2022/01/15 18:08:12;;;;;;;36.30;22.53;;;;;1.30;101920.00;;;;9928539;29;20271;-78
2022/01/15 18:13:14;;;;;;;36.07;21.63;;;;;1.30;101928.00;;;;9928575;29;20672;-78
2022/01/15 18:18:16;;;;;;;41.93;22.43;;;;;1.20;101931.00;;;;9892093;30;20722;-78
2022/01/15 18:23:18;;;;;;;39.00;23.70;;;;;1.10;101929.00;;;;9885846;29;20247;-78
2022/01/15 18:28:21;;;;;;;39.00;23.83;;;;;1.00;101929.00;;;;9965835;29;20232;-79
2022/01/15 18:33:28;;;;;;;37.10;22.07;;;;;1.00;101927.00;;;;9904928;30;20205;-78
2022/01/15 18:38:30;;;;;;;39.23;24.53;;;;;0.90;101922.00;;;;9914621;29;20280;-78
2022/01/15 18:43:32;;;;;;;42.23;24.97;;;;;0.90;101917.00;;;;9927717;29;20203;-78
2022/01/15 18:48:34;;;;;;;42.47;24.00;;;;;0.80;101916.00;;;;9929664;29;20222;-79
2022/01/15 18:53:37;;;;;;;41.53;25.13;;;;;0.80;101906.00;;;;9965249;29;20206;-78
2022/01/15 18:58:40;;;;;;;35.00;22.53;;;;;0.70;101915.00;;;;9944211;29;20201;-79
2022/01/15 19:03:41;;;;;;;41.20;24.23;;;;;0.70;101920.00;;;;9944663;29;20203;-78
2022/01/15 19:08:43;;;;;;;36.57;21.90;;;;;0.60;101949.00;;;;9893625;29;20231;-78
2022/01/15 19:13:45;;;;;;;39.40;21.83;;;;;0.60;101973.00;;;;9922786;29;20278;-78
2022/01/15 19:18:48;;;;;;;38.37;24.17;;;;;0.50;102022.00;;;;9938641;29;20191;-78
2022/01/15 19:23:50;;;;;;;48.30;28.20;;;;;0.50;102038.00;;;;9921167;29;20206;-78
2022/01/15 19:28:51;;;;;;;46.87;29.50;;;;;0.50;102008.00;;;;9906444;29;20223;-78
2022/01/15 19:33:53;;;;;;;50.83;31.97;;;;;0.50;101903.00;;;;9891607;29;20203;-78
2022/01/15 19:38:55;;;;;;;51.47;30.47;;;;;0.50;101805.00;;;;9920317;29;20260;-79
2022/01/15 19:43:57;;;;;;;50.80;30.53;;;;;0.50;101752.00;;;;9955036;29;20202;-78
2022/01/15 19:48:59;;;;;;;49.50;29.50;;;;;0.50;101818.00;;;;9926237;29;20698;-78
2022/01/15 19:54:02;;;;;;;48.63;28.00;;;;;0.60;101891.00;;;;9869097;30;20688;-78
2022/01/15 19:59:04;;;;;;;47.80;25.80;;;;;0.70;101891.00;;;;9882391;30;20669;-78
2022/01/15 20:04:06;;;;;;;42.97;26.07;;;;;0.70;101880.00;;;;9906555;29;20209;-78
2022/01/15 20:09:08;;;;;;;48.53;26.43;;;;;0.70;101839.00;;;;9896725;29;20291;-78
2022/01/15 20:14:14;;;;;;;43.83;28.07;;;;;0.70;101839.00;;;;9919218;29;20195;-78
2022/01/15 20:19:16;;;;;;;53.60;29.17;;;;;0.70;101849.00;;;;9919221;29;20202;-78
2022/01/15 20:24:18;;;;;;;58.00;30.23;;;;;0.70;101830.00;;;;9918688;29;20234;-78
2022/01/15 20:29:20;;;;;;;48.97;29.17;;;;;0.70;101850.00;;;;9918276;29;20222;-78
2022/01/15 20:34:25;;;;;;;50.67;30.00;;;;;0.80;101877.00;;;;9918248;29;20210;-77
2022/01/15 20:39:27;;;;;;;53.43;29.87;;;;;0.70;101850.00;;;;9919309;29;20206;-78
2022/01/15 20:44:31;;;;;;;53.70;31.27;;;;;0.70;101863.00;;;;9928478;29;20207;-78
2022/01/15 20:49:33;;;;;;;53.77;31.30;;;;;0.70;101841.00;;;;9927481;29;20206;-79
2022/01/15 20:54:35;;;;;;;59.20;32.53;;;;;0.70;101850.00;;;;9925546;29;20198;-79
2022/01/15 20:59:37;;;;;;;58.77;33.27;;;;;0.70;101837.00;;;;9940425;29;20231;-78
2022/01/15 21:04:39;;;;;;;55.13;32.67;;;;;0.60;101839.00;;;;9954873;29;20206;-78
2022/01/15 21:09:41;;;;;;;54.23;30.97;;;;;0.50;101861.00;;;;9939511;29;20231;-78
2022/01/15 21:14:43;;;;;;;56.47;33.10;;;;;0.50;101878.00;;;;9917715;29;20720;-79
2022/01/15 21:19:45;;;;;;;52.93;32.60;;;;;0.40;101859.00;;;;9917496;29;20203;-78
2022/01/15 21:24:48;;;;;;;57.90;34.00;;;;;0.50;101875.00;;;;9902134;29;20207;-78
2022/01/15 21:30:10;;;;;;;59.77;34.00;;;;;0.50;101874.00;;;;9915416;29;20226;-79
2022/01/15 21:35:13;;;;;;;72.80;39.33;;;;;0.40;101887.00;;;;9916661;29;20663;-78
2022/01/15 21:40:16;;;;;;;59.00;33.70;;;;;0.40;101888.00;;;;9917418;29;20210;-78
2022/01/15 21:45:18;;;;;;;60.03;33.77;;;;;0.40;101901.00;;;;9911792;29;20243;-78
2022/01/15 21:50:20;;;;;;;56.47;32.67;;;;;0.30;101919.00;;;;9942070;29;20214;-78
2022/01/15 21:55:22;;;;;;;63.40;35.93;;;;;0.20;101888.00;;;;9946883;29;20715;-78
2022/01/15 22:00:24;;;;;;;59.20;33.53;;;;;0.20;101909.00;;;;9897978;29;20216;-78
2022/01/15 22:05:31;;;;;;;60.53;35.67;;;;;0.30;101909.00;;;;9932800;29;20206;-78
2022/01/15 22:10:50;;;;;;;55.93;33.03;;;;;0.50;101905.00;;;;9905364;29;20230;-78
2022/01/15 22:15:52;;;;;;;58.30;32.93;;;;;0.60;101916.00;;;;9911196;29;20210;-78
2022/01/15 22:20:54;;;;;;;61.70;36.43;;;;;0.80;101926.00;;;;9909738;29;20205;-78
2022/01/15 22:26:18;;;;;;;77.23;40.63;;;;;0.90;101927.00;;;;9940898;29;20206;-78
2022/01/15 22:31:20;;;;;;;79.57;44.47;;;;;1.10;101899.00;;;;9954962;29;20206;-78
2022/01/15 22:36:22;;;;;;;97.77;51.80;;;;;1.20;101891.00;;;;9925375;29;20620;-78
2022/01/15 22:41:25;;;;;;;104.17;53.07;;;;;1.30;101898.00;;;;9879869;30;20204;-78
2022/01/15 22:46:27;;;;;;;85.37;49.97;;;;;1.20;101887.00;;;;9906542;29;20277;-78
2022/01/15 22:51:29;;;;;;;72.33;41.70;;;;;1.10;101883.00;;;;9932582;29;20207;-78
2022/01/15 22:56:50;;;;;;;78.60;44.60;;;;;1.00;101880.00;;;;9899872;29;20693;-78
2022/01/15 23:01:53;;;;;;;74.90;43.10;;;;;1.00;101883.00;;;;9909615;29;20736;-78
2022/01/15 23:06:55;;;;;;;84.93;44.47;;;;;1.00;101872.00;;;;9923753;29;20234;-78
2022/01/15 23:12:04;;;;;;;88.23;43.37;;;;;1.00;101879.00;;;;9885814;30;20211;-78
2022/01/15 23:17:06;;;;;;;89.63;45.37;;;;;0.90;101885.00;;;;9884057;30;20609;-79
2022/01/15 23:22:10;;;;;;;85.83;45.13;;;;;0.80;101887.00;;;;9903400;29;20278;-79
2022/01/15 23:27:12;;;;;;;79.97;41.67;;;;;0.80;101876.00;;;;9912054;29;20206;-79
2022/01/15 23:32:14;;;;;;;86.07;42.70;;;;;0.90;101881.00;;;;9912263;29;20664;-79
2022/01/15 23:37:16;;;;;;;87.43;43.63;;;;;0.90;101878.00;;;;9920749;29;20195;-78
2022/01/15 23:42:19;;;;;;;81.00;41.20;;;;;0.90;101880.00;;;;9905242;29;20207;-78
2022/01/15 23:47:22;;;;;;;87.60;44.87;;;;;0.90;101889.00;;;;9905438;29;20218;-78
2022/01/15 23:52:24;;;;;;;86.10;44.17;;;;;0.90;101874.00;;;;9936042;29;20199;-78
2022/01/15 23:57:25;;;;;;;88.63;42.50;;;;;0.90;101848.00;;;;9934771;29;20282;-78
